AirNav   Air Wisconsin pilot careers
 
 315 users online  

1TE9 RMR Ranch Airport
Franklin, Texas, USA


FAA INFORMATION EFFECTIVE 09 NOVEMBER 2017

Location

FAA Identifier: 1TE9
Lat/Long: 31-16-18.3000N / 096-26-22.7397W
31-16.305000N / 096-26.378995W
31.2717500 / -96.4396499
(estimated)
Elevation: 420 ft. / 128 m (estimated)
Variation: 05E (2000)
From city: 15 miles NNE of FRANKLIN, TX
Time zone: UTC -6 (UTC -5 during Daylight Saving Time)
Zip code: 77856

Airport Operations

Airport use: Private use. Permission required prior to landing
Activation date: 11/2002
Control tower: no
ARTCC: HOUSTON CENTER
FSS: MONTGOMERY COUNTY FLIGHT SERVICE STATION
Attendance: UNATNDD
Segmented circle: no

Nearby radio navigation aids

VOR radial/distance  VOR name  Freq  Var
GNLr158/19.4GROESBECK VOR/DME108.8005E
LOAr282/25.8LEONA VORTAC110.8008E

 
NDB name  Hdg/Dist  Freq  Var  ID
MEXIA166/22.432904ELXY .-.. -..- -.--
ROBINSON106/35.140007EROB .-. --- -...
PYRAMID193/37.641806EPYF .--. -.-- ..-.

Airport Services

Runway Information

Runway 15/33

Dimensions: 1563 x 150 ft. / 476 x 46 m
Surface: turf
RUNWAY 15  RUNWAY 33
Latitude: 31-16.422000N31-16.188000N
Longitude: 096-26.442000W096-26.315990W
Traffic pattern: leftleft
Displaced threshold: 200 ft.no

Airport Ownership and Management from official FAA records

Ownership: Privately-owned
Owner: RAY FIELD
13140 STATE HWY 7, PO BOX 692
FRANKLIN, TX 77856
Phone (979) 676-1650
SECONDARY PHONE: 713-297-1397
Manager: RAY FIELD
PO BOX 692
FRANKLIN, TX 77856
Phone (979) 676-1650
SECONDARY PHONE: 713-297-1397

Airport Operational Statistics

Aircraft based on the field: 5
Single engine airplanes: 1
Multi engine airplanes: 1
Helicopters: 1
Ultralights: 2
    

Additional Remarks

LARGE MOBILE MINING AND OILFIELD EQPT INVOF ARPT AFFECTING NORTH AND SOUTH APCHS. CALL ARPT FOR UPDATED OBSTN DATA BEFORE FLIGHT.

Instrument Procedures

There are no published instrument procedures at 1TE9.

Some nearby airports with instrument procedures:

T15 - Marlin Airport (22 nm W)
KLXY - Mexia-Limestone County Airport (22 nm N)
KLHB - Hearne Municipal Airport (26 nm S)
51R - Madisonville Municipal Airport (33 nm SE)
KCFD - Coulter Field Airport (34 nm S)
 
Loc | Ops | Rwys | IFR | FBO | Links
Com | Nav | Svcs | Stats | Notes


 
Area around 1TE9 (RMR Ranch Airport)
 
Road maps at: MapQuest Bing Google
 
Aerial photo
No photo
 
Sectional chart

 
Airport distance calculator
Flying to RMR Ranch Airport? Find the distance to fly.

From to 1TE9

Sunrise and sunset
Times for 20-Nov-2017
 Local
(UTC-6)
 Zulu
(UTC)
Morning civil twilight06:3312:33
Sunrise06:5912:59
Sunset17:2423:24
Evening civil twilight17:5023:50

Current date and time
Zulu (UTC)  20-Nov-2017 10:13:44
Local (UTC-6)  20-Nov-2017 04:13:44
 
METAR
KLXY 
22nm N 
200955Z AUTO 19008KT 10SM CLR 05/M02 A3020 RMK AO2 T00521017
KLHB 
26nm S 
200955Z AUTO 00000KT 10SM CLR 02/02 A3022 RMK AO2 T00190019
KCFD 
34nm S 
200955Z AUTO 00000KT 10SM CLR 04/02 A3022 RMK AO2 T00350021
KT35 
36nm SW 
200955Z AUTO 00000KT 10SM CLR 04/02 A3021 RMK AO2 T00390019
KCNW 
39nm NW 
200455Z 00000KT 10SM SKC 04/02 A3025
KCLL 
41nm S 
200953Z AUTO 08003KT 10SM CLR 07/02 A3021 RMK AO2 SLP227 T00670017 $
TAF
KCLL 
41nm S 
200520Z 2006/2106 08005KT P6SM BKN250 FM201700 16008KT P6SM SCT250 FM210100 16005KT P6SM SCT250
KACT 
46nm NW 
200535Z 2006/2106 15005KT P6SM SCT300 FM201600 18012KT P6SM SCT300
NOTAMs
Click for the latest NOTAMs
NOTAMs are issued by the DoD/FAA and will open in a separate window not controlled by AirNav.

 

 
 

Would you like to see your business listed on this page?

 If your business provides an interesting product or service to pilots, flight crews, aircraft, or users of the RMR Ranch Airport, you should consider listing it here.  To start the listing process, click on the button below
 
Add a business
 

Other Pages about RMR Ranch Airport

Update a link
 
Copyright © AirNav, LLC. All rights reserved. Privacy Policy  Contact